createdAt,value
2022-10-05T00:01:33.203Z,5.40
2022-10-05T00:04:16.349Z,4.70
2022-10-05T00:06:52.430Z,5.20
2022-10-05T00:09:23.750Z,5.30
2022-10-05T00:11:53.445Z,4.88
2022-10-05T00:14:30.387Z,5.25
2022-10-05T00:17:00.105Z,5.43
2022-10-05T00:19:34.351Z,5.15
2022-10-05T00:22:13.294Z,5.03
2022-10-05T00:24:44.908Z,5.13
2022-10-05T00:27:21.380Z,5.47
2022-10-05T00:29:54.069Z,4.70
2022-10-05T00:32:23.521Z,4.82
2022-10-05T00:34:53.144Z,5.05
2022-10-05T00:37:22.619Z,4.43
2022-10-05T00:39:53.483Z,3.97
2022-10-05T00:42:46.992Z,4.45
2022-10-05T00:45:22.996Z,4.30
2022-10-05T00:48:08.042Z,4.43
2022-10-05T00:51:23.066Z,4.40
2022-10-05T00:54:18.615Z,4.45
2022-10-05T00:57:14.946Z,4.50
2022-10-05T01:00:00.229Z,4.32
2022-10-05T01:02:42.965Z,4.47
2022-10-05T01:05:24.711Z,4.47
2022-10-05T01:08:03.507Z,4.45
2022-10-05T01:10:43.721Z,3.92
2022-10-05T01:13:28.906Z,4.72
2022-10-05T01:16:12.027Z,4.88
2022-10-05T01:18:50.954Z,4.57
2022-10-05T01:21:26.185Z,4.68
2022-10-05T01:24:56.167Z,6.10
2022-10-05T01:27:57.275Z,4.78
2022-10-05T01:30:27.322Z,4.70
2022-10-05T01:33:10.643Z,5.13
2022-10-05T01:35:56.056Z,5.38
2022-10-05T01:38:43.827Z,4.18
2022-10-05T01:41:31.836Z,4.70
2022-10-05T01:44:11.169Z,4.40
2022-10-05T01:46:50.566Z,4.03
2022-10-05T01:49:39.372Z,4.03
2022-10-05T01:52:29.687Z,4.40
2022-10-05T01:55:16.264Z,4.68
2022-10-05T01:58:07.168Z,3.92
2022-10-05T02:00:51.635Z,3.38
2022-10-05T02:03:28.366Z,3.40
2022-10-05T02:06:05.706Z,3.85
2022-10-05T02:08:45.481Z,4.05
2022-10-05T02:11:16.411Z,3.67
2022-10-05T02:13:55.038Z,3.08
2022-10-05T02:16:34.469Z,3.45
2022-10-05T02:19:14.649Z,3.40
2022-10-05T02:21:52.299Z,3.60
2022-10-05T02:24:31.244Z,3.35
2022-10-05T02:27:01.188Z,3.45
2022-10-05T02:29:34.316Z,3.10
2022-10-05T02:32:13.604Z,3.88
2022-10-05T02:34:44.929Z,3.65
2022-10-05T02:37:42.345Z,3.10
2022-10-05T02:40:25.076Z,3.47
2022-10-05T02:43:09.202Z,2.90
2022-10-05T02:45:53.581Z,3.35
2022-10-05T02:48:41.191Z,3.28
2022-10-05T02:51:20.549Z,3.38
2022-10-05T02:54:12.552Z,3.15
2022-10-05T02:56:52.639Z,2.65
2022-10-05T02:59:32.036Z,3.58
2022-10-05T03:02:16.510Z,3.40
2022-10-05T03:05:00.557Z,2.72
2022-10-05T03:07:42.766Z,3.13
2022-10-05T03:10:27.980Z,3.20
2022-10-05T03:13:07.491Z,3.75
2022-10-05T03:15:59.883Z,2.83
2022-10-05T03:18:48.770Z,3.10
2022-10-05T03:21:45.830Z,3.47
2022-10-05T03:24:56.287Z,2.90
2022-10-05T03:27:39.137Z,3.30
2022-10-05T03:30:17.705Z,3.13
2022-10-05T03:33:00.133Z,2.90
2022-10-05T03:35:35.252Z,2.90
2022-10-05T03:38:19.276Z,3.20
2022-10-05T03:40:58.956Z,2.50
2022-10-05T03:44:03.530Z,3.03
2022-10-05T03:46:51.219Z,2.80
2022-10-05T03:49:35.631Z,2.80
2022-10-05T03:52:13.228Z,2.60
2022-10-05T03:54:49.702Z,2.83
2022-10-05T03:57:24.654Z,2.90
2022-10-05T04:00:05.395Z,3.08
2022-10-05T04:02:56.753Z,3.13
2022-10-05T04:05:32.292Z,3.10
2022-10-05T04:08:08.598Z,3.30
2022-10-05T04:10:48.186Z,2.80
2022-10-05T04:13:27.812Z,3.05
2022-10-05T04:16:05.771Z,2.70
2022-10-05T04:18:40.770Z,2.95
2022-10-05T04:21:24.058Z,2.92
2022-10-05T04:24:02.692Z,2.70
2022-10-05T04:26:41.900Z,2.88
2022-10-05T04:29:25.827Z,2.50
2022-10-05T04:32:21.490Z,2.40
2022-10-05T04:35:23.080Z,2.70
2022-10-05T04:38:05.034Z,2.50
2022-10-05T04:41:07.715Z,2.80
2022-10-05T04:43:57.381Z,2.50
2022-10-05T04:46:49.463Z,2.58
2022-10-05T04:50:06.412Z,2.30
2022-10-05T04:52:51.075Z,2.67
2022-10-05T04:55:32.141Z,2.88
2022-10-05T04:58:14.145Z,2.60
2022-10-05T05:01:02.014Z,2.80
2022-10-05T05:04:00.648Z,2.70
2022-10-05T05:06:38.827Z,2.60
2022-10-05T05:09:47.000Z,2.58
2022-10-05T05:12:29.366Z,2.60
2022-10-05T05:15:23.385Z,2.15
2022-10-05T05:18:34.022Z,2.50
2022-10-05T05:21:17.690Z,2.03
2022-10-05T05:24:02.214Z,2.10
2022-10-05T05:27:00.814Z,2.08
2022-10-05T05:29:53.219Z,2.43
2022-10-05T05:32:38.054Z,2.00
2022-10-05T05:36:08.779Z,2.10
2022-10-05T05:38:45.583Z,1.85
2022-10-05T05:41:25.955Z,2.10
2022-10-05T05:44:15.466Z,2.15
2022-10-05T05:47:04.370Z,2.20
2022-10-05T05:50:07.069Z,2.13
2022-10-05T05:52:47.169Z,2.08
2022-10-05T05:55:39.784Z,2.17
2022-10-05T05:58:21.423Z,2.60
2022-10-05T06:00:59.567Z,2.63
2022-10-05T06:03:38.750Z,2.45
2022-10-05T06:06:14.671Z,2.47
2022-10-05T06:08:51.160Z,2.80
2022-10-05T06:11:38.875Z,2.30
2022-10-05T06:14:19.491Z,2.47
2022-10-05T06:16:56.393Z,2.60
2022-10-05T06:19:28.983Z,2.60
2022-10-05T06:22:07.205Z,2.40
2022-10-05T06:24:49.281Z,2.33
2022-10-05T06:27:37.029Z,1.88
2022-10-05T06:30:13.312Z,2.50
2022-10-05T06:33:07.470Z,2.05
2022-10-05T06:35:55.625Z,1.88
2022-10-05T06:38:52.919Z,2.00
2022-10-05T06:41:40.928Z,1.77
2022-10-05T06:44:17.382Z,1.92
2022-10-05T06:47:01.952Z,1.67
2022-10-05T06:50:20.781Z,1.90
2022-10-05T06:53:22.332Z,1.63
